This is the latest recevied weather packets stored in our database for station/object NC4J. If no packets are shown the sender has not sent any weather packets the latest 10 day(s).
| Time | Temp. | Humidity | Pressure | Rain* | Wind** | Luminosity | Snow |
|---|---|---|---|---|---|---|---|
| 1777664180 | 16.67° C | 50% | 1013.4 hPa | 0 mm | - | 123 W/m² | - |
| 1777663878 | 16.67° C | 47% | 1013.5 hPa | 0 mm | - | 119 W/m² | - |
| 1777663574 | 16.67° C | 47% | 1013.6 hPa | 0 mm | - | 152 W/m² | - |
| 1777663272 | 16.67° C | 49% | 1013.6 hPa | 0 mm | - | 141 W/m² | - |
| 1777662969 | 17.22° C | 46% | 1013.7 hPa | 0 mm | - | 132 W/m² | - |
| 1777662666 | 16.67° C | 46% | 1014.1 hPa | 0 mm | - | 167 W/m² | - |
| 1777662363 | 17.22° C | 49% | 1013.9 hPa | 0 mm | - | 141 W/m² | - |
| 1777662058 | 16.67° C | 48% | 1014 hPa | 0 mm | - | 159 W/m² | - |
| 1777661754 | 16.67° C | 48% | 1013.9 hPa | 0 mm | - | 135 W/m² | - |
| 1777661450 | 17.22° C | 48% | 1014.1 hPa | 0 mm | - | 123 W/m² | - |
| 1777661146 | 16.67° C | 48% | 1014.1 hPa | 0 mm | - | 141 W/m² | - |
| 1777660846 | 16.67° C | 46% | 1014.2 hPa | 0 mm | - | 141 W/m² | - |
| 1777660543 | 16.67° C | 47% | 1014.2 hPa | 0 mm | - | 138 W/m² | - |
| 1777660240 | 17.22° C | 45% | 1014.4 hPa | 0 mm | - | 146 W/m² | - |
| 1777659936 | 16.67° C | 46% | 1014.2 hPa | 0 mm | - | 155 W/m² | - |
| 1777659633 | 17.22° C | 45% | 1014 hPa | 0 mm | - | 152 W/m² | - |
| 1777659331 | 16.67° C | 46% | 1014 hPa | 0 mm | - | 159 W/m² | - |
| 1777659027 | 16.67° C | 47% | 1014.2 hPa | 0 mm | - | 140 W/m² | - |
| 1777658725 | 16.67° C | 49% | 1014.1 hPa | 0 mm | - | 146 W/m² | - |
| 1777658421 | 16.11° C | 47% | 1014.4 hPa | 0 mm | - | 143 W/m² | - |
| 1777658118 | 16.11° C | 46% | 1014.5 hPa | 0 mm | - | 153 W/m² | - |
| 1777657814 | 16.11° C | 47% | 1014.2 hPa | 0 mm | - | 125 W/m² | - |
| 1777657512 | 16.11° C | 47% | 1014.2 hPa | 0 mm | - | 136 W/m² | - |
| 1777657209 | 15.56° C | 48% | 1014.2 hPa | 0 mm | - | 136 W/m² | - |
| 1777656907 | 16.11° C | 46% | 1014.5 hPa | 0 mm | - | 138 W/m² | - |
* Rain latest hour (hover to see other rain measurements)
** Current wind speed in m/s (hover to see current wind gust speed)